Terminal Aerodrome Forecast
Issued by NWS

Home | Current Version | Previous Version | Text Only | Print | Product List | Glossary Off
Versions: 1 2 3 4 5 6 7 8 9 10 11 12 13 14

530
FTUS43 KTOP 242112 AAA
TAFFOE
TAF AMD
KFOE 242112Z 2421/2518 29018G24KT P6SM FEW120 SCT200
     FM242200 32010KT P6SM SCT120
      TEMPO 2422/2424 33017G25KT=

USA.gov is the U.S. government's official web portal to all federal, state and local government web resources and services.